createdAt,value
2017-09-02T00:00:18.255Z,29.80
2017-09-02T00:02:45.850Z,30.73
2017-09-02T00:05:14.232Z,32.60
2017-09-02T00:07:41.852Z,34.20
2017-09-02T00:10:09.424Z,40.80
2017-09-02T00:12:37.017Z,35.90
2017-09-02T00:15:04.604Z,33.50
2017-09-02T00:17:32.165Z,30.17
2017-09-02T00:19:59.772Z,40.60
2017-09-02T00:22:27.353Z,29.63
2017-09-02T00:24:54.959Z,34.67
2017-09-02T00:27:22.635Z,36.20
2017-09-02T00:29:50.279Z,32.53
2017-09-02T00:32:17.917Z,31.70
2017-09-02T00:34:45.520Z,40.60
2017-09-02T00:37:13.146Z,39.93
2017-09-02T00:39:40.770Z,30.10
2017-09-02T00:42:08.356Z,38.00
2017-09-02T00:44:35.970Z,39.10
2017-09-02T00:47:03.566Z,35.17
2017-09-02T00:49:31.173Z,32.20
2017-09-02T00:51:58.737Z,35.33
2017-09-02T00:54:26.332Z,36.90
2017-09-02T00:56:54.004Z,35.17
2017-09-02T00:59:21.583Z,36.67
2017-09-02T01:01:49.187Z,35.17
2017-09-02T01:04:16.753Z,31.57
2017-09-02T01:06:44.341Z,35.53
2017-09-02T01:09:11.936Z,32.37
2017-09-02T01:11:39.546Z,41.20
2017-09-02T01:14:07.177Z,39.90
2017-09-02T01:16:34.741Z,36.20
2017-09-02T01:19:03.061Z,36.20
2017-09-02T01:21:30.670Z,35.53
2017-09-02T01:23:59.037Z,37.30
2017-09-02T01:26:26.664Z,35.53
2017-09-02T01:28:54.224Z,43.07
2017-09-02T01:31:21.785Z,35.83
2017-09-02T01:33:49.408Z,42.47
2017-09-02T01:36:17.029Z,39.30
2017-09-02T01:38:44.647Z,38.77
2017-09-02T01:41:12.227Z,42.73
2017-09-02T01:43:39.812Z,34.80
2017-09-02T01:46:07.436Z,35.63
2017-09-02T01:48:35.020Z,38.63
2017-09-02T01:51:02.664Z,39.57
2017-09-02T01:53:30.273Z,42.10
2017-09-02T01:55:57.843Z,43.77
2017-09-02T01:58:25.457Z,36.17
2017-09-02T02:00:53.059Z,33.63
2017-09-02T02:03:20.680Z,35.30
2017-09-02T02:05:48.289Z,35.90
2017-09-02T02:08:15.857Z,40.63
2017-09-02T02:10:43.455Z,39.00
2017-09-02T02:13:11.031Z,44.47
2017-09-02T02:15:38.669Z,36.40
2017-09-02T02:18:06.260Z,39.10
2017-09-02T02:20:33.850Z,44.67
2017-09-02T02:23:01.460Z,41.57
2017-09-02T02:25:29.054Z,41.20
2017-09-02T02:27:56.682Z,38.33
2017-09-02T02:30:24.277Z,38.77
2017-09-02T02:32:51.836Z,39.73
2017-09-02T02:35:19.437Z,43.10
2017-09-02T02:37:47.033Z,43.00
2017-09-02T02:40:14.642Z,38.07
2017-09-02T02:42:42.241Z,38.80
2017-09-02T02:45:09.830Z,39.53
2017-09-02T02:47:37.413Z,39.43
2017-09-02T02:50:04.977Z,37.43
2017-09-02T02:52:32.611Z,40.80
2017-09-02T02:55:00.179Z,37.20
2017-09-02T02:57:27.747Z,37.73
2017-09-02T02:59:55.359Z,35.73
2017-09-02T03:02:22.897Z,39.67
2017-09-02T03:04:50.442Z,40.93
2017-09-02T03:07:18.027Z,44.03
2017-09-02T03:09:45.578Z,43.93
2017-09-02T03:12:13.123Z,44.57
2017-09-02T03:14:40.727Z,45.53
2017-09-02T03:17:08.297Z,39.87
2017-09-02T03:19:35.847Z,45.03
2017-09-02T03:22:03.426Z,45.57
2017-09-02T03:24:30.969Z,43.90
2017-09-02T03:26:58.541Z,46.63
2017-09-02T03:29:26.137Z,41.23
2017-09-02T03:31:53.695Z,41.43
2017-09-02T03:34:21.249Z,38.03
2017-09-02T03:36:48.831Z,37.13
2017-09-02T03:39:16.387Z,44.23
2017-09-02T03:41:43.933Z,38.83
2017-09-02T03:44:11.517Z,39.97
2017-09-02T03:46:39.057Z,42.83
2017-09-02T03:49:06.616Z,38.77
2017-09-02T03:51:34.180Z,37.23
2017-09-02T03:54:01.736Z,42.90
2017-09-02T03:56:29.276Z,39.00
2017-09-02T03:58:56.859Z,42.17
2017-09-02T04:01:24.400Z,39.50
2017-09-02T04:03:51.986Z,41.30
2017-09-02T04:06:19.564Z,46.73
2017-09-02T04:08:47.100Z,35.67
2017-09-02T04:11:14.628Z,47.23
2017-09-02T04:13:42.209Z,38.17
2017-09-02T04:16:09.770Z,42.33
2017-09-02T04:18:37.334Z,39.87
2017-09-02T04:21:04.902Z,32.57
2017-09-02T04:23:32.446Z,38.50
2017-09-02T04:25:59.981Z,36.40
2017-09-02T04:28:27.564Z,38.83
2017-09-02T04:30:55.096Z,38.07
2017-09-02T04:33:23.425Z,42.37
2017-09-02T04:35:50.998Z,37.87
2017-09-02T04:38:18.557Z,39.30
2017-09-02T04:40:46.112Z,43.70
2017-09-02T04:43:13.698Z,38.93
2017-09-02T04:45:41.232Z,36.37
2017-09-02T04:48:08.774Z,40.80
2017-09-02T04:50:36.364Z,42.03
2017-09-02T04:53:03.922Z,37.40
2017-09-02T04:55:31.476Z,38.53
2017-09-02T04:57:59.038Z,40.93
2017-09-02T05:00:26.581Z,41.07
2017-09-02T05:02:54.121Z,47.10
2017-09-02T05:05:21.694Z,44.67
2017-09-02T05:07:49.248Z,42.53
2017-09-02T05:10:16.788Z,34.00
2017-09-02T05:12:44.352Z,37.60
2017-09-02T05:15:11.893Z,39.40
2017-09-02T05:17:39.434Z,46.67
2017-09-02T05:20:07.047Z,43.63
2017-09-02T05:22:34.619Z,41.00
2017-09-02T05:25:02.185Z,42.73
2017-09-02T05:27:30.539Z,39.60
2017-09-02T05:29:58.091Z,38.43
2017-09-02T05:32:25.638Z,47.60
2017-09-02T05:34:53.223Z,40.73
2017-09-02T05:37:20.772Z,35.37
2017-09-02T05:39:48.333Z,37.37
2017-09-02T05:42:15.959Z,37.03
2017-09-02T05:44:43.528Z,36.90
2017-09-02T05:47:11.101Z,38.30
2017-09-02T05:49:38.785Z,34.80
2017-09-02T05:52:06.317Z,32.37
2017-09-02T05:54:33.867Z,36.53
2017-09-02T05:57:01.454Z,39.33
2017-09-02T05:59:29.009Z,36.13
2017-09-02T06:01:56.561Z,36.47
2017-09-02T06:04:24.163Z,36.20
2017-09-02T06:06:51.706Z,30.67
2017-09-02T06:09:19.245Z,33.47
2017-09-02T06:11:46.830Z,29.37
2017-09-02T06:14:14.389Z,34.70
2017-09-02T06:16:45.860Z,30.50
2017-09-02T06:19:13.439Z,30.90
2017-09-02T06:21:40.973Z,30.60
2017-09-02T06:24:08.516Z,37.20
2017-09-02T06:26:36.094Z,32.20
2017-09-02T06:29:03.676Z,34.70
2017-09-02T06:31:31.234Z,37.40
2017-09-02T06:33:58.797Z,37.43
2017-09-02T06:36:26.432Z,36.33
2017-09-02T06:38:53.992Z,32.50
2017-09-02T06:41:21.665Z,43.70
2017-09-02T06:43:49.219Z,37.10
2017-09-02T06:46:16.753Z,41.30
2017-09-02T06:48:44.317Z,36.03
2017-09-02T06:51:11.879Z,39.73
2017-09-02T06:53:39.426Z,34.90
2017-09-02T06:56:07.769Z,36.70
2017-09-02T06:58:35.330Z,34.93
2017-09-02T07:01:02.896Z,40.50
2017-09-02T07:03:30.502Z,32.63
2017-09-02T07:05:58.816Z,35.47
2017-09-02T07:08:26.367Z,38.60
2017-09-02T07:10:53.923Z,35.73
2017-09-02T07:13:21.461Z,36.03
2017-09-02T07:15:49.015Z,29.17
2017-09-02T07:18:16.621Z,32.40
2017-09-02T07:20:44.148Z,30.03
2017-09-02T07:23:11.710Z,33.50
2017-09-02T07:25:40.063Z,32.17
2017-09-02T07:28:07.604Z,28.73
2017-09-02T07:30:35.164Z,30.17
2017-09-02T07:33:02.751Z,29.07
2017-09-02T07:35:30.306Z,23.97
2017-09-02T07:37:58.048Z,23.07
2017-09-02T07:40:25.628Z,25.97
2017-09-02T07:42:53.173Z,25.80
2017-09-02T07:45:20.730Z,27.93
2017-09-02T07:47:48.315Z,22.87
2017-09-02T07:50:15.955Z,22.33
2017-09-02T07:52:43.495Z,26.40
2017-09-02T07:55:11.066Z,23.97
2017-09-02T07:57:38.607Z,20.87
2017-09-02T08:00:06.151Z,21.70
2017-09-02T08:02:33.766Z,22.13
2017-09-02T08:05:01.345Z,18.10
2017-09-02T08:07:28.879Z,15.50
2017-09-02T08:09:56.457Z,23.13
2017-09-02T08:12:24.001Z,27.40
2017-09-02T08:14:51.540Z,18.13
2017-09-02T08:17:19.105Z,15.90
2017-09-02T08:19:46.646Z,18.33
2017-09-02T08:22:14.191Z,21.70
2017-09-02T08:24:41.772Z,17.90
2017-09-02T08:27:09.319Z,14.20
2017-09-02T08:29:36.860Z,14.33
2017-09-02T08:32:04.456Z,18.03
2017-09-02T08:34:32.001Z,14.30
2017-09-02T08:36:59.552Z,12.00
2017-09-02T08:39:27.147Z,16.83
2017-09-02T08:41:54.693Z,21.33
2017-09-02T08:44:22.237Z,15.20
2017-09-02T08:46:49.819Z,9.83
2017-09-02T08:49:17.367Z,9.80
2017-09-02T08:51:44.908Z,13.57
2017-09-02T08:54:12.481Z,7.70
2017-09-02T08:56:40.017Z,8.10
2017-09-02T08:59:07.551Z,9.53
2017-09-02T09:01:35.984Z,6.37
2017-09-02T09:04:03.539Z,6.63
2017-09-02T09:06:31.091Z,10.37
2017-09-02T09:08:58.662Z,4.93
2017-09-02T09:11:26.207Z,10.50
2017-09-02T09:13:53.741Z,9.17
2017-09-02T09:16:21.316Z,7.27
2017-09-02T09:18:48.868Z,6.57
2017-09-02T09:21:16.402Z,7.17
2017-09-02T09:23:43.970Z,9.03
2017-09-02T09:26:11.528Z,7.50
2017-09-02T09:28:39.077Z,8.20
2017-09-02T09:31:06.644Z,8.83
2017-09-02T09:33:34.189Z,7.23
2017-09-02T09:36:01.740Z,8.80
2017-09-02T09:38:29.324Z,5.97
2017-09-02T09:40:56.876Z,3.13
2017-09-02T09:43:24.426Z,6.87
2017-09-02T09:45:52.000Z,7.90
2017-09-02T09:48:19.553Z,5.80
2017-09-02T09:50:47.094Z,5.50
2017-09-02T09:53:14.667Z,6.90
2017-09-02T09:55:42.212Z,8.40
2017-09-02T09:58:09.734Z,5.90
2017-09-02T10:00:37.314Z,7.03
2017-09-02T10:03:04.840Z,7.53
2017-09-02T10:05:32.378Z,15.20
2017-09-02T10:07:59.946Z,9.00
2017-09-02T10:10:27.492Z,5.07
2017-09-02T10:12:55.048Z,6.53
2017-09-02T10:15:22.609Z,8.47
2017-09-02T10:17:50.156Z,8.07
2017-09-02T10:20:17.704Z,5.10
2017-09-02T10:22:45.275Z,7.87
2017-09-02T10:25:12.824Z,7.00
2017-09-02T10:27:40.349Z,9.63
2017-09-02T10:30:07.910Z,6.90
2017-09-02T10:32:35.456Z,5.33
2017-09-02T10:35:03.002Z,5.33
2017-09-02T10:37:30.592Z,17.73
2017-09-02T10:39:58.137Z,4.33
2017-09-02T10:42:25.665Z,8.67
2017-09-02T10:44:53.236Z,4.20
2017-09-02T10:47:20.759Z,7.50
2017-09-02T10:49:49.081Z,3.10
2017-09-02T10:52:16.646Z,3.70
2017-09-02T10:54:44.183Z,4.83
2017-09-02T10:57:11.709Z,7.33
2017-09-02T10:59:39.266Z,3.37
2017-09-02T11:02:06.821Z,2.83
2017-09-02T11:04:34.367Z,5.10
2017-09-02T11:07:01.933Z,4.40
2017-09-02T11:09:29.461Z,7.47
2017-09-02T11:11:56.998Z,5.30
2017-09-02T11:14:24.569Z,3.90
2017-09-02T11:16:52.113Z,4.70
2017-09-02T11:19:19.670Z,4.87
2017-09-02T11:21:47.274Z,4.50
2017-09-02T11:24:14.823Z,4.43
2017-09-02T11:26:43.128Z,2.40
2017-09-02T11:29:10.691Z,6.40
2017-09-02T11:31:38.216Z,5.40
2017-09-02T11:34:05.760Z,5.17
2017-09-02T11:36:33.318Z,3.00
2017-09-02T11:39:00.844Z,6.23
2017-09-02T11:41:28.406Z,2.67
2017-09-02T11:43:55.964Z,3.70
2017-09-02T11:46:23.528Z,2.60
2017-09-02T11:48:51.062Z,6.90
2017-09-02T11:51:18.643Z,5.30
2017-09-02T11:53:46.171Z,4.53
2017-09-02T11:56:13.733Z,4.80
2017-09-02T11:58:41.320Z,4.70
2017-09-02T12:01:08.854Z,5.60
2017-09-02T12:03:37.168Z,4.30
2017-09-02T12:06:04.734Z,3.77
2017-09-02T12:08:32.300Z,3.17
2017-09-02T12:10:59.826Z,9.43
2017-09-02T12:13:27.422Z,6.50
2017-09-02T12:15:54.971Z,4.83
2017-09-02T12:18:22.519Z,4.20
2017-09-02T12:20:50.076Z,4.23
2017-09-02T12:23:17.604Z,3.30
2017-09-02T12:25:45.131Z,5.10
2017-09-02T12:28:12.793Z,15.10
2017-09-02T12:30:40.335Z,2.60
2017-09-02T12:33:07.871Z,4.00
2017-09-02T12:35:35.436Z,1.87
2017-09-02T12:38:02.979Z,6.93
2017-09-02T12:40:30.520Z,5.03
2017-09-02T12:42:58.081Z,3.10
2017-09-02T12:45:25.631Z,2.57
2017-09-02T12:47:53.184Z,3.80
2017-09-02T12:50:20.767Z,2.77
2017-09-02T12:52:48.315Z,2.47
2017-09-02T12:55:15.845Z,3.53
2017-09-02T12:57:43.432Z,4.20
2017-09-02T13:00:10.962Z,9.50
2017-09-02T13:02:38.490Z,4.13
2017-09-02T13:05:06.071Z,3.87
2017-09-02T13:07:33.620Z,4.07
2017-09-02T13:10:01.162Z,5.47
2017-09-02T13:12:28.735Z,2.93
2017-09-02T13:14:56.263Z,10.97
2017-09-02T13:17:23.801Z,36.53
2017-09-02T13:19:51.379Z,8.67
2017-09-02T13:22:18.914Z,9.90
2017-09-02T13:24:46.462Z,31.70
2017-09-02T13:27:14.035Z,3.73
2017-09-02T13:29:41.565Z,5.10
2017-09-02T13:32:09.093Z,3.23
2017-09-02T13:34:36.663Z,2.57
2017-09-02T13:37:04.206Z,15.10
2017-09-02T13:39:31.742Z,18.27
2017-09-02T13:41:59.318Z,12.77
2017-09-02T13:44:26.862Z,5.17
2017-09-02T13:46:54.404Z,2.23
2017-09-02T13:49:21.972Z,1.70
2017-09-02T13:51:49.519Z,4.80
2017-09-02T13:54:17.043Z,4.87
2017-09-02T13:56:44.611Z,2.27
2017-09-02T13:59:12.160Z,9.90
2017-09-02T14:01:39.687Z,6.67
2017-09-02T14:04:08.027Z,3.20
2017-09-02T14:06:35.556Z,3.03
2017-09-02T14:09:03.108Z,3.27
2017-09-02T14:11:30.682Z,4.47
2017-09-02T14:13:58.208Z,3.87
2017-09-02T14:16:25.761Z,1.60
2017-09-02T14:18:53.340Z,2.50
2017-09-02T14:21:20.880Z,4.63
2017-09-02T14:23:48.409Z,3.00
2017-09-02T14:26:16.323Z,1.70
2017-09-02T14:28:43.851Z,1.80
2017-09-02T14:31:11.392Z,4.03
2017-09-02T14:33:38.957Z,5.50
2017-09-02T14:36:06.504Z,2.50
2017-09-02T14:38:34.064Z,3.43
2017-09-02T14:41:01.652Z,3.30
2017-09-02T14:43:29.196Z,5.50
2017-09-02T14:45:56.785Z,1.80
2017-09-02T14:48:25.443Z,3.13
2017-09-02T14:50:52.973Z,3.87
2017-09-02T14:53:20.542Z,7.50
2017-09-02T14:55:48.105Z,3.60
2017-09-02T14:58:15.783Z,3.93
2017-09-02T15:00:43.434Z,4.10
2017-09-02T15:03:11.862Z,3.00
2017-09-02T15:05:39.613Z,5.07
2017-09-02T15:08:07.161Z,1.87
2017-09-02T15:10:34.724Z,2.40
2017-09-02T15:13:02.267Z,2.93
2017-09-02T15:15:29.812Z,4.23
2017-09-02T15:17:58.151Z,3.27
2017-09-02T15:20:25.700Z,8.47
2017-09-02T15:22:53.243Z,5.10
2017-09-02T15:25:21.057Z,5.33
2017-09-02T15:27:48.586Z,3.33
2017-09-02T15:30:16.116Z,3.00
2017-09-02T15:32:44.436Z,5.83
2017-09-02T15:35:11.996Z,7.43
2017-09-02T15:37:39.547Z,6.30
2017-09-02T15:40:07.120Z,5.87
2017-09-02T15:42:34.657Z,6.90
2017-09-02T15:45:02.199Z,5.00
2017-09-02T15:47:30.542Z,3.47
2017-09-02T15:49:58.087Z,3.93
2017-09-02T15:52:25.618Z,8.23
2017-09-02T15:54:53.195Z,4.47
2017-09-02T15:57:20.755Z,6.23
2017-09-02T15:59:48.301Z,2.23
2017-09-02T16:02:15.883Z,3.67
2017-09-02T16:04:43.435Z,4.73
2017-09-02T16:07:10.968Z,11.83
2017-09-02T16:09:38.538Z,10.00
2017-09-02T16:12:06.096Z,4.70
2017-09-02T16:14:33.644Z,4.60
2017-09-02T16:17:01.223Z,5.37
2017-09-02T16:19:28.758Z,2.57
2017-09-02T16:21:56.312Z,14.60
2017-09-02T16:24:23.883Z,3.40
2017-09-02T16:26:51.405Z,3.40
2017-09-02T16:29:18.942Z,5.10
2017-09-02T16:31:46.497Z,7.70
2017-09-02T16:34:14.020Z,4.00
2017-09-02T16:36:41.568Z,5.13
2017-09-02T16:39:09.139Z,2.37
2017-09-02T16:41:36.684Z,8.50
2017-09-02T16:44:04.209Z,3.53
2017-09-02T16:46:31.768Z,1.87
2017-09-02T16:48:59.292Z,3.27
2017-09-02T16:51:26.844Z,2.60
2017-09-02T16:53:54.428Z,3.27
2017-09-02T16:56:21.961Z,5.57
2017-09-02T16:58:49.489Z,5.17
2017-09-02T17:01:17.069Z,6.90
2017-09-02T17:03:44.619Z,6.00
2017-09-02T17:06:12.159Z,9.70
2017-09-02T17:08:39.716Z,4.60
2017-09-02T17:11:07.250Z,5.27
2017-09-02T17:13:34.819Z,3.57
2017-09-02T17:16:02.397Z,3.43
2017-09-02T17:18:29.934Z,8.33
2017-09-02T17:20:57.490Z,8.60
2017-09-02T17:23:25.088Z,4.50
2017-09-02T17:25:52.635Z,4.73
2017-09-02T17:28:20.162Z,5.90
2017-09-02T17:30:47.749Z,3.33
2017-09-02T17:33:15.281Z,2.30
2017-09-02T17:35:42.818Z,3.43
2017-09-02T17:38:10.378Z,2.40
2017-09-02T17:40:37.908Z,2.43
2017-09-02T17:43:06.209Z,2.20
2017-09-02T17:45:33.775Z,4.00
2017-09-02T17:48:01.316Z,3.87
2017-09-02T17:50:28.839Z,6.00
2017-09-02T17:52:56.422Z,2.73
2017-09-02T17:55:23.983Z,8.10
2017-09-02T17:57:51.603Z,4.60
2017-09-02T18:00:19.230Z,5.97
2017-09-02T18:02:46.785Z,6.50
2017-09-02T18:05:14.320Z,9.40
2017-09-02T18:07:41.895Z,5.50
2017-09-02T18:10:09.456Z,14.47
2017-09-02T18:12:37.005Z,8.40
2017-09-02T18:15:04.620Z,11.27
2017-09-02T18:17:32.167Z,7.80
2017-09-02T18:19:59.723Z,11.97
2017-09-02T18:22:27.294Z,7.97
2017-09-02T18:24:54.848Z,13.47
2017-09-02T18:27:22.382Z,11.83
2017-09-02T18:29:49.947Z,15.07
2017-09-02T18:32:17.579Z,14.97
2017-09-02T18:34:45.109Z,10.10
2017-09-02T18:37:12.675Z,9.07
2017-09-02T18:39:40.219Z,11.27
2017-09-02T18:42:07.766Z,11.00
2017-09-02T18:44:35.345Z,9.80
2017-09-02T18:47:02.891Z,12.00
2017-09-02T18:49:30.433Z,16.20
2017-09-02T18:51:57.997Z,9.70
2017-09-02T18:54:25.585Z,11.43
2017-09-02T18:56:53.124Z,7.07
2017-09-02T18:59:20.695Z,10.00
2017-09-02T19:01:48.255Z,9.30
2017-09-02T19:04:15.817Z,8.10
2017-09-02T19:06:43.403Z,8.87
2017-09-02T19:09:10.932Z,6.10
2017-09-02T19:11:38.483Z,7.63
2017-09-02T19:14:06.042Z,7.73
2017-09-02T19:16:33.569Z,7.40
2017-09-02T19:19:01.115Z,6.47
2017-09-02T19:21:28.673Z,11.30
2017-09-02T19:23:56.205Z,8.37
2017-09-02T19:26:23.734Z,9.90
2017-09-02T19:28:51.315Z,11.07
2017-09-02T19:31:18.852Z,8.70
2017-09-02T19:33:46.377Z,8.70
2017-09-02T19:36:13.954Z,11.73
2017-09-02T19:38:41.502Z,10.13
2017-09-02T19:41:09.132Z,14.37
2017-09-02T19:43:36.722Z,8.00
2017-09-02T19:46:04.264Z,6.93
2017-09-02T19:48:31.803Z,9.70
2017-09-02T19:50:59.383Z,9.83
2017-09-02T19:53:26.930Z,10.63
2017-09-02T19:55:54.487Z,12.85
2017-09-02T19:58:22.077Z,13.40
2017-09-02T20:00:49.632Z,15.33
2017-09-02T20:03:17.180Z,12.10
2017-09-02T20:05:44.749Z,8.83
2017-09-02T20:08:12.309Z,8.53
2017-09-02T20:10:39.860Z,9.50
2017-09-02T20:13:07.462Z,6.67
2017-09-02T20:15:35.003Z,7.67
2017-09-02T20:18:02.562Z,8.33
2017-09-02T20:20:30.167Z,9.20
2017-09-02T20:22:57.764Z,7.80
2017-09-02T20:25:25.355Z,11.60
2017-09-02T20:27:52.913Z,9.27
2017-09-02T20:30:20.487Z,12.30
2017-09-02T20:32:48.021Z,16.73
2017-09-02T20:35:15.607Z,14.30
2017-09-02T20:37:43.145Z,14.20
2017-09-02T20:40:10.690Z,15.57
2017-09-02T20:42:38.596Z,18.00
2017-09-02T20:45:06.156Z,13.23
2017-09-02T20:47:33.717Z,18.17
2017-09-02T20:50:01.327Z,12.00
2017-09-02T20:52:28.877Z,12.63
2017-09-02T20:54:56.425Z,15.53
2017-09-02T20:57:24.001Z,13.60
2017-09-02T20:59:51.555Z,14.57
2017-09-02T21:02:19.875Z,12.90
2017-09-02T21:04:47.457Z,18.87
2017-09-02T21:07:15.044Z,12.60
2017-09-02T21:09:42.586Z,15.40
2017-09-02T21:12:10.175Z,14.67
2017-09-02T21:14:37.737Z,16.30
2017-09-02T21:17:05.272Z,18.50
2017-09-02T21:19:32.841Z,15.53
2017-09-02T21:22:00.368Z,13.43
2017-09-02T21:24:27.925Z,15.87
2017-09-02T21:26:55.499Z,17.83
2017-09-02T21:29:23.035Z,16.60
2017-09-02T21:31:50.583Z,15.37
2017-09-02T21:34:18.164Z,25.77
2017-09-02T21:36:45.705Z,14.77
2017-09-02T21:39:13.242Z,15.33
2017-09-02T21:41:40.815Z,18.80
2017-09-02T21:44:08.377Z,22.03
2017-09-02T21:46:35.918Z,26.83
2017-09-02T21:49:03.485Z,19.57
2017-09-02T21:51:31.037Z,17.80
2017-09-02T21:53:58.559Z,15.10
2017-09-02T21:56:26.130Z,18.40
2017-09-02T21:58:53.679Z,16.37
2017-09-02T22:01:21.230Z,15.53
2017-09-02T22:03:48.808Z,13.53
2017-09-02T22:06:16.950Z,14.23
2017-09-02T22:08:44.482Z,13.60
2017-09-02T22:11:12.060Z,13.83
2017-09-02T22:13:39.666Z,17.47
2017-09-02T22:16:07.209Z,12.37
2017-09-02T22:18:34.772Z,16.20
2017-09-02T22:21:03.065Z,14.23
2017-09-02T22:23:30.623Z,14.03
2017-09-02T22:25:58.228Z,19.13
2017-09-02T22:28:25.766Z,20.87
2017-09-02T22:30:53.294Z,14.40
2017-09-02T22:33:20.866Z,13.30
2017-09-02T22:35:48.414Z,13.10
2017-09-02T22:38:15.945Z,13.80
2017-09-02T22:40:43.523Z,16.03
2017-09-02T22:43:11.059Z,13.83
2017-09-02T22:45:38.589Z,18.77
2017-09-02T22:48:06.169Z,11.73
2017-09-02T22:50:33.702Z,11.43
2017-09-02T22:53:01.234Z,10.40
2017-09-02T22:55:28.810Z,12.03
2017-09-02T22:57:56.341Z,11.10
2017-09-02T23:00:23.880Z,17.03
2017-09-02T23:02:51.459Z,10.70
2017-09-02T23:05:18.994Z,15.50
2017-09-02T23:07:46.524Z,20.43
2017-09-02T23:10:14.095Z,13.63
2017-09-02T23:12:41.625Z,13.83
2017-09-02T23:15:09.179Z,17.00
2017-09-02T23:17:36.736Z,14.93
2017-09-02T23:20:04.280Z,15.57
2017-09-02T23:22:31.825Z,20.93
2017-09-02T23:24:59.404Z,16.80
2017-09-02T23:27:26.963Z,13.97
2017-09-02T23:29:54.485Z,10.63
2017-09-02T23:32:22.072Z,12.05
2017-09-02T23:34:49.614Z,11.65
2017-09-02T23:37:17.172Z,14.00
2017-09-02T23:39:44.828Z,13.50
2017-09-02T23:42:12.379Z,14.77
2017-09-02T23:44:39.921Z,11.55
2017-09-02T23:47:07.516Z,17.53
2017-09-02T23:49:35.067Z,15.43
2017-09-02T23:52:02.613Z,13.00
2017-09-02T23:54:30.205Z,15.52
2017-09-02T23:56:57.755Z,20.42
2017-09-02T23:59:25.290Z,12.17
